sensor_id;sensor_type;location;lat;lon;timestamp;P1;durP1;ratioP1;P2;durP2;ratioP2
313;SDS011;143;51.634;7.112;2023-04-25T00:00:21;13.73;;;5.70;;
313;SDS011;143;51.634;7.112;2023-04-25T00:02:47;18.30;;;7.07;;
313;SDS011;143;51.634;7.112;2023-04-25T00:05:13;21.60;;;7.13;;
313;SDS011;143;51.634;7.112;2023-04-25T00:07:42;20.07;;;5.87;;
313;SDS011;143;51.634;7.112;2023-04-25T00:10:08;19.33;;;7.37;;
313;SDS011;143;51.634;7.112;2023-04-25T00:12:35;22.00;;;6.57;;
313;SDS011;143;51.634;7.112;2023-04-25T00:15:01;19.20;;;7.60;;
313;SDS011;143;51.634;7.112;2023-04-25T00:17:28;16.53;;;6.00;;
313;SDS011;143;51.634;7.112;2023-04-25T00:19:54;14.33;;;6.20;;
313;SDS011;143;51.634;7.112;2023-04-25T00:22:21;20.33;;;6.80;;
313;SDS011;143;51.634;7.112;2023-04-25T00:24:46;13.70;;;6.20;;
313;SDS011;143;51.634;7.112;2023-04-25T00:27:12;12.83;;;5.20;;
313;SDS011;143;51.634;7.112;2023-04-25T00:29:38;12.77;;;5.27;;
313;SDS011;143;51.634;7.112;2023-04-25T00:32:03;23.47;;;6.60;;
313;SDS011;143;51.634;7.112;2023-04-25T00:34:29;17.13;;;5.60;;
313;SDS011;143;51.634;7.112;2023-04-25T00:36:55;21.50;;;6.43;;
313;SDS011;143;51.634;7.112;2023-04-25T00:39:21;14.17;;;5.37;;
313;SDS011;143;51.634;7.112;2023-04-25T00:41:47;14.20;;;5.80;;
313;SDS011;143;51.634;7.112;2023-04-25T00:44:13;18.83;;;6.47;;
313;SDS011;143;51.634;7.112;2023-04-25T00:46:42;13.67;;;5.10;;
313;SDS011;143;51.634;7.112;2023-04-25T00:49:07;18.73;;;6.80;;
313;SDS011;143;51.634;7.112;2023-04-25T00:51:33;22.90;;;5.23;;
313;SDS011;143;51.634;7.112;2023-04-25T00:54:00;16.10;;;6.30;;
313;SDS011;143;51.634;7.112;2023-04-25T00:56:26;16.97;;;6.03;;
313;SDS011;143;51.634;7.112;2023-04-25T00:58:53;18.80;;;7.00;;
313;SDS011;143;51.634;7.112;2023-04-25T01:01:22;14.43;;;6.00;;
313;SDS011;143;51.634;7.112;2023-04-25T01:03:48;10.83;;;5.07;;
313;SDS011;143;51.634;7.112;2023-04-25T01:06:14;13.10;;;5.00;;
313;SDS011;143;51.634;7.112;2023-04-25T01:08:41;15.47;;;4.93;;
313;SDS011;143;51.634;7.112;2023-04-25T01:11:07;8.23;;;4.60;;
313;SDS011;143;51.634;7.112;2023-04-25T01:13:33;18.47;;;5.97;;
313;SDS011;143;51.634;7.112;2023-04-25T01:15:59;11.23;;;5.10;;
313;SDS011;143;51.634;7.112;2023-04-25T01:18:26;12.20;;;5.80;;
313;SDS011;143;51.634;7.112;2023-04-25T01:20:52;17.57;;;6.00;;
313;SDS011;143;51.634;7.112;2023-04-25T01:23:18;14.27;;;5.07;;
313;SDS011;143;51.634;7.112;2023-04-25T01:25:50;14.73;;;5.60;;
313;SDS011;143;51.634;7.112;2023-04-25T01:28:16;13.20;;;5.03;;
313;SDS011;143;51.634;7.112;2023-04-25T01:30:42;17.47;;;5.60;;
313;SDS011;143;51.634;7.112;2023-04-25T01:33:08;15.57;;;6.17;;
313;SDS011;143;51.634;7.112;2023-04-25T01:35:34;10.63;;;5.07;;
313;SDS011;143;51.634;7.112;2023-04-25T01:38:00;15.33;;;4.83;;
313;SDS011;143;51.634;7.112;2023-04-25T01:40:26;14.57;;;6.10;;
313;SDS011;143;51.634;7.112;2023-04-25T01:42:53;16.20;;;5.77;;
313;SDS011;143;51.634;7.112;2023-04-25T01:45:19;14.17;;;6.33;;
313;SDS011;143;51.634;7.112;2023-04-25T01:47:45;15.63;;;5.87;;
313;SDS011;143;51.634;7.112;2023-04-25T01:50:15;12.33;;;5.40;;
313;SDS011;143;51.634;7.112;2023-04-25T01:52:42;14.50;;;6.50;;
313;SDS011;143;51.634;7.112;2023-04-25T01:55:08;14.03;;;5.77;;
313;SDS011;143;51.634;7.112;2023-04-25T01:57:34;11.67;;;5.13;;
313;SDS011;143;51.634;7.112;2023-04-25T02:00:02;20.40;;;6.73;;
313;SDS011;143;51.634;7.112;2023-04-25T02:02:30;17.90;;;6.47;;
313;SDS011;143;51.634;7.112;2023-04-25T02:04:56;10.90;;;6.00;;
313;SDS011;143;51.634;7.112;2023-04-25T02:07:22;14.53;;;7.10;;
313;SDS011;143;51.634;7.112;2023-04-25T02:09:47;13.77;;;6.70;;
313;SDS011;143;51.634;7.112;2023-04-25T02:12:13;13.97;;;6.33;;
313;SDS011;143;51.634;7.112;2023-04-25T02:14:39;19.67;;;6.63;;
313;SDS011;143;51.634;7.112;2023-04-25T02:17:04;17.07;;;6.03;;
313;SDS011;143;51.634;7.112;2023-04-25T02:19:30;26.10;;;6.07;;
313;SDS011;143;51.634;7.112;2023-04-25T02:21:56;19.70;;;7.90;;
313;SDS011;143;51.634;7.112;2023-04-25T02:24:23;16.63;;;6.53;;
313;SDS011;143;51.634;7.112;2023-04-25T02:26:48;13.83;;;5.60;;
313;SDS011;143;51.634;7.112;2023-04-25T02:29:14;14.80;;;6.07;;
313;SDS011;143;51.634;7.112;2023-04-25T02:31:40;14.60;;;6.93;;
313;SDS011;143;51.634;7.112;2023-04-25T02:34:07;16.73;;;6.33;;
313;SDS011;143;51.634;7.112;2023-04-25T02:36:32;16.63;;;6.70;;
313;SDS011;143;51.634;7.112;2023-04-25T02:39:00;14.47;;;6.10;;
313;SDS011;143;51.634;7.112;2023-04-25T02:41:26;16.37;;;5.97;;
313;SDS011;143;51.634;7.112;2023-04-25T02:43:52;10.73;;;6.17;;
313;SDS011;143;51.634;7.112;2023-04-25T02:46:18;18.50;;;6.53;;
313;SDS011;143;51.634;7.112;2023-04-25T02:48:43;19.27;;;6.83;;
313;SDS011;143;51.634;7.112;2023-04-25T02:51:09;14.40;;;5.60;;
313;SDS011;143;51.634;7.112;2023-04-25T02:53:35;15.43;;;6.43;;
313;SDS011;143;51.634;7.112;2023-04-25T02:56:01;15.70;;;6.60;;
313;SDS011;143;51.634;7.112;2023-04-25T02:58:27;15.80;;;6.37;;
313;SDS011;143;51.634;7.112;2023-04-25T03:00:53;14.77;;;6.20;;
313;SDS011;143;51.634;7.112;2023-04-25T03:03:19;14.73;;;6.27;;
313;SDS011;143;51.634;7.112;2023-04-25T03:05:47;10.60;;;5.30;;
313;SDS011;143;51.634;7.112;2023-04-25T03:08:19;18.67;;;7.63;;
313;SDS011;143;51.634;7.112;2023-04-25T03:10:44;22.10;;;6.80;;
313;SDS011;143;51.634;7.112;2023-04-25T03:13:10;19.93;;;6.93;;
313;SDS011;143;51.634;7.112;2023-04-25T03:15:36;18.77;;;7.00;;
313;SDS011;143;51.634;7.112;2023-04-25T03:18:03;21.97;;;6.50;;
313;SDS011;143;51.634;7.112;2023-04-25T03:20:29;13.90;;;5.57;;
313;SDS011;143;51.634;7.112;2023-04-25T03:22:56;16.73;;;7.00;;
313;SDS011;143;51.634;7.112;2023-04-25T03:25:22;19.70;;;7.27;;
313;SDS011;143;51.634;7.112;2023-04-25T03:27:48;17.77;;;6.90;;
313;SDS011;143;51.634;7.112;2023-04-25T03:30:13;14.87;;;6.93;;
313;SDS011;143;51.634;7.112;2023-04-25T03:32:39;14.60;;;6.23;;
313;SDS011;143;51.634;7.112;2023-04-25T03:35:05;21.70;;;5.87;;
313;SDS011;143;51.634;7.112;2023-04-25T03:37:30;14.50;;;5.03;;
313;SDS011;143;51.634;7.112;2023-04-25T03:39:56;11.57;;;4.07;;
313;SDS011;143;51.634;7.112;2023-04-25T03:42:22;7.50;;;4.50;;
313;SDS011;143;51.634;7.112;2023-04-25T03:44:48;10.37;;;3.70;;
313;SDS011;143;51.634;7.112;2023-04-25T03:47:14;10.50;;;2.97;;
313;SDS011;143;51.634;7.112;2023-04-25T03:49:41;10.53;;;4.40;;
313;SDS011;143;51.634;7.112;2023-04-25T03:52:07;11.93;;;3.70;;
313;SDS011;143;51.634;7.112;2023-04-25T03:54:33;8.67;;;3.13;;
313;SDS011;143;51.634;7.112;2023-04-25T03:56:58;12.10;;;3.67;;
313;SDS011;143;51.634;7.112;2023-04-25T03:59:24;13.67;;;3.37;;
313;SDS011;143;51.634;7.112;2023-04-25T04:01:51;13.30;;;3.40;;
313;SDS011;143;51.634;7.112;2023-04-25T04:04:17;12.87;;;3.50;;
313;SDS011;143;51.634;7.112;2023-04-25T04:06:43;12.63;;;3.77;;
313;SDS011;143;51.634;7.112;2023-04-25T04:09:09;10.00;;;4.03;;
313;SDS011;143;51.634;7.112;2023-04-25T04:11:36;11.80;;;4.30;;
313;SDS011;143;51.634;7.112;2023-04-25T04:14:03;8.50;;;3.23;;
313;SDS011;143;51.634;7.112;2023-04-25T04:16:32;8.60;;;3.00;;
313;SDS011;143;51.634;7.112;2023-04-25T04:18:58;11.40;;;3.63;;
313;SDS011;143;51.634;7.112;2023-04-25T04:21:24;9.03;;;3.40;;
313;SDS011;143;51.634;7.112;2023-04-25T04:23:51;9.17;;;2.90;;
313;SDS011;143;51.634;7.112;2023-04-25T04:26:17;10.73;;;3.50;;
313;SDS011;143;51.634;7.112;2023-04-25T04:28:43;14.97;;;3.83;;
313;SDS011;143;51.634;7.112;2023-04-25T04:31:10;11.00;;;3.30;;
313;SDS011;143;51.634;7.112;2023-04-25T04:33:35;17.50;;;3.30;;
313;SDS011;143;51.634;7.112;2023-04-25T04:36:02;12.53;;;4.17;;
313;SDS011;143;51.634;7.112;2023-04-25T04:38:29;11.87;;;2.97;;
313;SDS011;143;51.634;7.112;2023-04-25T04:40:55;12.57;;;3.30;;
313;SDS011;143;51.634;7.112;2023-04-25T04:43:21;9.37;;;3.40;;
313;SDS011;143;51.634;7.112;2023-04-25T04:45:48;11.47;;;3.70;;
313;SDS011;143;51.634;7.112;2023-04-25T04:48:15;7.80;;;3.10;;
313;SDS011;143;51.634;7.112;2023-04-25T04:50:44;9.03;;;3.60;;
313;SDS011;143;51.634;7.112;2023-04-25T04:53:10;8.07;;;2.83;;
313;SDS011;143;51.634;7.112;2023-04-25T04:55:36;10.10;;;3.37;;
313;SDS011;143;51.634;7.112;2023-04-25T04:58:02;10.47;;;3.70;;
313;SDS011;143;51.634;7.112;2023-04-25T05:00:28;15.83;;;4.57;;
313;SDS011;143;51.634;7.112;2023-04-25T05:02:54;10.83;;;4.10;;
313;SDS011;143;51.634;7.112;2023-04-25T05:05:20;17.40;;;5.30;;
313;SDS011;143;51.634;7.112;2023-04-25T05:07:46;19.43;;;4.27;;
313;SDS011;143;51.634;7.112;2023-04-25T05:10:12;23.53;;;5.90;;
313;SDS011;143;51.634;7.112;2023-04-25T05:12:38;10.03;;;4.10;;
313;SDS011;143;51.634;7.112;2023-04-25T05:15:03;13.63;;;4.53;;
313;SDS011;143;51.634;7.112;2023-04-25T05:17:29;10.70;;;4.43;;
313;SDS011;143;51.634;7.112;2023-04-25T05:19:55;19.67;;;4.87;;
313;SDS011;143;51.634;7.112;2023-04-25T05:22:22;11.40;;;4.90;;
313;SDS011;143;51.634;7.112;2023-04-25T05:24:48;13.03;;;4.80;;
313;SDS011;143;51.634;7.112;2023-04-25T05:27:15;21.73;;;5.40;;
313;SDS011;143;51.634;7.112;2023-04-25T05:29:42;11.97;;;4.77;;
313;SDS011;143;51.634;7.112;2023-04-25T05:32:07;16.07;;;4.77;;
313;SDS011;143;51.634;7.112;2023-04-25T05:34:34;18.20;;;5.13;;
313;SDS011;143;51.634;7.112;2023-04-25T05:37:00;25.47;;;6.20;;
313;SDS011;143;51.634;7.112;2023-04-25T05:39:26;19.73;;;5.43;;
313;SDS011;143;51.634;7.112;2023-04-25T05:41:52;13.60;;;5.63;;
313;SDS011;143;51.634;7.112;2023-04-25T05:44:17;18.13;;;5.60;;
313;SDS011;143;51.634;7.112;2023-04-25T05:46:43;17.67;;;6.70;;
313;SDS011;143;51.634;7.112;2023-04-25T05:49:09;9.83;;;5.53;;
313;SDS011;143;51.634;7.112;2023-04-25T05:51:34;28.57;;;7.80;;
313;SDS011;143;51.634;7.112;2023-04-25T05:54:00;14.13;;;5.90;;
313;SDS011;143;51.634;7.112;2023-04-25T05:56:26;17.90;;;6.20;;
313;SDS011;143;51.634;7.112;2023-04-25T05:58:52;19.30;;;6.60;;
313;SDS011;143;51.634;7.112;2023-04-25T06:01:17;21.77;;;6.30;;
313;SDS011;143;51.634;7.112;2023-04-25T06:03:43;17.43;;;5.60;;
313;SDS011;143;51.634;7.112;2023-04-25T06:06:09;12.43;;;6.33;;
313;SDS011;143;51.634;7.112;2023-04-25T06:08:36;18.57;;;6.63;;
313;SDS011;143;51.634;7.112;2023-04-25T06:11:03;15.87;;;5.97;;
313;SDS011;143;51.634;7.112;2023-04-25T06:13:29;21.80;;;7.13;;
313;SDS011;143;51.634;7.112;2023-04-25T06:15:55;23.17;;;6.47;;
313;SDS011;143;51.634;7.112;2023-04-25T06:18:21;18.27;;;6.90;;
313;SDS011;143;51.634;7.112;2023-04-25T06:20:46;29.80;;;8.10;;
313;SDS011;143;51.634;7.112;2023-04-25T06:23:12;19.27;;;6.20;;
313;SDS011;143;51.634;7.112;2023-04-25T06:25:38;24.60;;;5.60;;
313;SDS011;143;51.634;7.112;2023-04-25T06:28:03;23.23;;;5.03;;
313;SDS011;143;51.634;7.112;2023-04-25T06:30:29;28.33;;;6.77;;
313;SDS011;143;51.634;7.112;2023-04-25T06:32:55;13.93;;;5.63;;
313;SDS011;143;51.634;7.112;2023-04-25T06:35:20;16.07;;;6.20;;
313;SDS011;143;51.634;7.112;2023-04-25T06:37:46;19.37;;;7.17;;
313;SDS011;143;51.634;7.112;2023-04-25T06:40:12;13.63;;;5.37;;
313;SDS011;143;51.634;7.112;2023-04-25T06:42:38;16.33;;;4.80;;
313;SDS011;143;51.634;7.112;2023-04-25T06:45:03;15.50;;;5.00;;
313;SDS011;143;51.634;7.112;2023-04-25T06:47:30;16.27;;;5.80;;
313;SDS011;143;51.634;7.112;2023-04-25T06:49:55;12.93;;;5.40;;
313;SDS011;143;51.634;7.112;2023-04-25T06:52:21;16.13;;;5.40;;
313;SDS011;143;51.634;7.112;2023-04-25T06:54:47;22.30;;;5.87;;
313;SDS011;143;51.634;7.112;2023-04-25T06:57:12;16.50;;;4.93;;
313;SDS011;143;51.634;7.112;2023-04-25T06:59:38;14.63;;;4.20;;
313;SDS011;143;51.634;7.112;2023-04-25T07:02:04;23.67;;;5.60;;
313;SDS011;143;51.634;7.112;2023-04-25T07:04:31;17.03;;;4.17;;
313;SDS011;143;51.634;7.112;2023-04-25T07:06:56;15.00;;;4.80;;
313;SDS011;143;51.634;7.112;2023-04-25T07:09:22;15.23;;;4.83;;
313;SDS011;143;51.634;7.112;2023-04-25T07:11:48;16.63;;;5.37;;
313;SDS011;143;51.634;7.112;2023-04-25T07:14:14;15.27;;;5.73;;
313;SDS011;143;51.634;7.112;2023-04-25T07:16:40;14.93;;;5.50;;
313;SDS011;143;51.634;7.112;2023-04-25T07:19:06;12.30;;;3.70;;
313;SDS011;143;51.634;7.112;2023-04-25T07:21:32;15.90;;;4.43;;
313;SDS011;143;51.634;7.112;2023-04-25T07:23:58;11.20;;;5.00;;
313;SDS011;143;51.634;7.112;2023-04-25T07:26:23;12.63;;;3.80;;
313;SDS011;143;51.634;7.112;2023-04-25T07:28:49;11.67;;;3.63;;
313;SDS011;143;51.634;7.112;2023-04-25T07:31:16;15.03;;;4.33;;
313;SDS011;143;51.634;7.112;2023-04-25T07:33:43;11.00;;;3.60;;
313;SDS011;143;51.634;7.112;2023-04-25T07:36:12;15.27;;;3.80;;
313;SDS011;143;51.634;7.112;2023-04-25T07:38:38;11.40;;;3.50;;
313;SDS011;143;51.634;7.112;2023-04-25T07:41:04;8.77;;;3.20;;
313;SDS011;143;51.634;7.112;2023-04-25T07:43:30;14.90;;;3.43;;
313;SDS011;143;51.634;7.112;2023-04-25T07:45:56;8.53;;;3.43;;
313;SDS011;143;51.634;7.112;2023-04-25T07:48:22;19.70;;;4.57;;
313;SDS011;143;51.634;7.112;2023-04-25T07:50:48;11.87;;;3.03;;
313;SDS011;143;51.634;7.112;2023-04-25T07:53:13;7.93;;;2.53;;
313;SDS011;143;51.634;7.112;2023-04-25T07:55:39;12.77;;;3.27;;
313;SDS011;143;51.634;7.112;2023-04-25T07:58:07;16.57;;;3.33;;
313;SDS011;143;51.634;7.112;2023-04-25T08:00:34;20.20;;;4.43;;
313;SDS011;143;51.634;7.112;2023-04-25T08:03:00;8.63;;;2.77;;
313;SDS011;143;51.634;7.112;2023-04-25T08:05:25;13.83;;;3.43;;
313;SDS011;143;51.634;7.112;2023-04-25T08:07:51;12.93;;;3.20;;
313;SDS011;143;51.634;7.112;2023-04-25T08:10:17;9.80;;;2.63;;
313;SDS011;143;51.634;7.112;2023-04-25T08:12:43;17.00;;;3.07;;
313;SDS011;143;51.634;7.112;2023-04-25T08:15:08;15.93;;;2.97;;
313;SDS011;143;51.634;7.112;2023-04-25T08:17:34;11.37;;;3.27;;
313;SDS011;143;51.634;7.112;2023-04-25T08:20:00;12.83;;;2.67;;
313;SDS011;143;51.634;7.112;2023-04-25T08:22:30;9.30;;;2.20;;
313;SDS011;143;51.634;7.112;2023-04-25T08:24:56;13.33;;;4.10;;
313;SDS011;143;51.634;7.112;2023-04-25T08:27:21;19.73;;;4.07;;
313;SDS011;143;51.634;7.112;2023-04-25T08:29:47;12.80;;;2.70;;
313;SDS011;143;51.634;7.112;2023-04-25T08:32:13;13.83;;;4.37;;
313;SDS011;143;51.634;7.112;2023-04-25T08:34:39;18.67;;;3.00;;
313;SDS011;143;51.634;7.112;2023-04-25T08:37:07;8.27;;;2.77;;
313;SDS011;143;51.634;7.112;2023-04-25T08:39:34;12.07;;;2.97;;
313;SDS011;143;51.634;7.112;2023-04-25T08:42:05;15.40;;;2.80;;
313;SDS011;143;51.634;7.112;2023-04-25T08:44:35;9.70;;;3.10;;
313;SDS011;143;51.634;7.112;2023-04-25T08:47:05;12.63;;;2.93;;
313;SDS011;143;51.634;7.112;2023-04-25T08:49:34;16.83;;;2.70;;
313;SDS011;143;51.634;7.112;2023-04-25T08:52:01;8.83;;;2.87;;
313;SDS011;143;51.634;7.112;2023-04-25T08:54:30;23.23;;;4.50;;
313;SDS011;143;51.634;7.112;2023-04-25T08:56:57;8.13;;;2.40;;
313;SDS011;143;51.634;7.112;2023-04-25T08:59:26;9.50;;;3.00;;
313;SDS011;143;51.634;7.112;2023-04-25T09:01:53;11.43;;;2.40;;
313;SDS011;143;51.634;7.112;2023-04-25T09:04:19;12.80;;;3.53;;
313;SDS011;143;51.634;7.112;2023-04-25T09:06:45;11.70;;;3.37;;
313;SDS011;143;51.634;7.112;2023-04-25T09:09:11;13.57;;;2.90;;
313;SDS011;143;51.634;7.112;2023-04-25T09:11:37;13.57;;;2.40;;
313;SDS011;143;51.634;7.112;2023-04-25T09:14:19;6.20;;;2.63;;
313;SDS011;143;51.634;7.112;2023-04-25T09:19:24;26.27;;;3.77;;
313;SDS011;143;51.634;7.112;2023-04-25T09:21:54;9.03;;;2.27;;
313;SDS011;143;51.634;7.112;2023-04-25T09:24:31;13.77;;;1.93;;
313;SDS011;143;51.634;7.112;2023-04-25T09:26:57;5.03;;;1.80;;
313;SDS011;143;51.634;7.112;2023-04-25T09:29:28;13.53;;;2.30;;
313;SDS011;143;51.634;7.112;2023-04-25T09:34:44;5.03;;;1.60;;
313;SDS011;143;51.634;7.112;2023-04-25T09:37:25;14.00;;;1.83;;
313;SDS011;143;51.634;7.112;2023-04-25T09:39:58;3.90;;;1.60;;
313;SDS011;143;51.634;7.112;2023-04-25T09:42:28;13.13;;;1.70;;
313;SDS011;143;51.634;7.112;2023-04-25T09:44:56;7.60;;;1.50;;
313;SDS011;143;51.634;7.112;2023-04-25T09:47:23;8.37;;;1.70;;
313;SDS011;143;51.634;7.112;2023-04-25T09:49:51;5.90;;;1.63;;
313;SDS011;143;51.634;7.112;2023-04-25T09:52:24;7.43;;;1.57;;
313;SDS011;143;51.634;7.112;2023-04-25T09:54:50;7.27;;;1.50;;
313;SDS011;143;51.634;7.112;2023-04-25T09:57:21;6.33;;;1.60;;
313;SDS011;143;51.634;7.112;2023-04-25T09:59:49;5.23;;;1.37;;
313;SDS011;143;51.634;7.112;2023-04-25T10:02:23;3.67;;;1.20;;
313;SDS011;143;51.634;7.112;2023-04-25T10:04:53;4.23;;;1.60;;
313;SDS011;143;51.634;7.112;2023-04-25T10:07:20;7.37;;;1.70;;
313;SDS011;143;51.634;7.112;2023-04-25T10:09:52;10.30;;;1.77;;
313;SDS011;143;51.634;7.112;2023-04-25T10:12:24;10.90;;;2.00;;
313;SDS011;143;51.634;7.112;2023-04-25T10:14:51;10.40;;;2.27;;
313;SDS011;143;51.634;7.112;2023-04-25T10:17:17;8.57;;;1.80;;
313;SDS011;143;51.634;7.112;2023-04-25T10:19:46;6.73;;;2.10;;
313;SDS011;143;51.634;7.112;2023-04-25T10:22:20;11.30;;;3.13;;
313;SDS011;143;51.634;7.112;2023-04-25T10:24:48;8.17;;;2.07;;
313;SDS011;143;51.634;7.112;2023-04-25T10:27:16;8.30;;;1.70;;
313;SDS011;143;51.634;7.112;2023-04-25T10:29:42;6.73;;;1.80;;
313;SDS011;143;51.634;7.112;2023-04-25T10:32:08;14.80;;;1.83;;
313;SDS011;143;51.634;7.112;2023-04-25T10:34:41;7.33;;;1.67;;
313;SDS011;143;51.634;7.112;2023-04-25T10:37:13;7.60;;;1.47;;
313;SDS011;143;51.634;7.112;2023-04-25T10:39:40;6.83;;;1.80;;
313;SDS011;143;51.634;7.112;2023-04-25T10:42:06;7.47;;;1.60;;
313;SDS011;143;51.634;7.112;2023-04-25T10:44:36;7.50;;;1.67;;
313;SDS011;143;51.634;7.112;2023-04-25T10:47:05;7.73;;;2.03;;
313;SDS011;143;51.634;7.112;2023-04-25T10:52:18;7.53;;;3.97;;
313;SDS011;143;51.634;7.112;2023-04-25T10:54:51;10.30;;;2.10;;
313;SDS011;143;51.634;7.112;2023-04-25T11:00:01;3.10;;;1.30;;
313;SDS011;143;51.634;7.112;2023-04-25T11:02:31;34.50;;;2.27;;
313;SDS011;143;51.634;7.112;2023-04-25T11:05:01;7.70;;;2.00;;
313;SDS011;143;51.634;7.112;2023-04-25T11:07:37;4.97;;;1.87;;
313;SDS011;143;51.634;7.112;2023-04-25T11:10:08;4.70;;;1.60;;
313;SDS011;143;51.634;7.112;2023-04-25T11:12:34;6.83;;;1.70;;
313;SDS011;143;51.634;7.112;2023-04-25T11:15:01;6.50;;;1.63;;
313;SDS011;143;51.634;7.112;2023-04-25T11:17:31;6.93;;;1.40;;
313;SDS011;143;51.634;7.112;2023-04-25T11:19:57;4.77;;;1.30;;
313;SDS011;143;51.634;7.112;2023-04-25T11:22:23;2.50;;;1.17;;
313;SDS011;143;51.634;7.112;2023-04-25T11:24:49;11.10;;;1.70;;
313;SDS011;143;51.634;7.112;2023-04-25T11:27:15;5.67;;;1.50;;
313;SDS011;143;51.634;7.112;2023-04-25T11:29:41;2.20;;;0.87;;
313;SDS011;143;51.634;7.112;2023-04-25T11:32:07;3.23;;;1.30;;
313;SDS011;143;51.634;7.112;2023-04-25T11:34:33;3.83;;;1.20;;
313;SDS011;143;51.634;7.112;2023-04-25T11:36:59;2.60;;;1.10;;
313;SDS011;143;51.634;7.112;2023-04-25T11:39:27;1.80;;;1.00;;
313;SDS011;143;51.634;7.112;2023-04-25T11:41:53;5.60;;;1.57;;
313;SDS011;143;51.634;7.112;2023-04-25T11:44:19;7.17;;;1.30;;
313;SDS011;143;51.634;7.112;2023-04-25T11:46:45;7.87;;;1.60;;
313;SDS011;143;51.634;7.112;2023-04-25T11:49:12;5.70;;;1.10;;
313;SDS011;143;51.634;7.112;2023-04-25T11:51:41;2.77;;;1.27;;
313;SDS011;143;51.634;7.112;2023-04-25T11:54:08;1.80;;;1.10;;
313;SDS011;143;51.634;7.112;2023-04-25T11:56:35;3.50;;;1.20;;
313;SDS011;143;51.634;7.112;2023-04-25T11:59:01;4.70;;;1.30;;
313;SDS011;143;51.634;7.112;2023-04-25T12:01:29;2.80;;;1.00;;
313;SDS011;143;51.634;7.112;2023-04-25T12:03:57;4.73;;;1.40;;
313;SDS011;143;51.634;7.112;2023-04-25T12:06:27;5.20;;;1.23;;
313;SDS011;143;51.634;7.112;2023-04-25T12:09:03;3.23;;;1.17;;
313;SDS011;143;51.634;7.112;2023-04-25T12:11:32;3.87;;;1.40;;
313;SDS011;143;51.634;7.112;2023-04-25T12:14:22;3.63;;;1.00;;
313;SDS011;143;51.634;7.112;2023-04-25T12:16:55;4.17;;;1.07;;
313;SDS011;143;51.634;7.112;2023-04-25T12:19:23;2.90;;;1.23;;
313;SDS011;143;51.634;7.112;2023-04-25T12:21:49;8.20;;;1.50;;
313;SDS011;143;51.634;7.112;2023-04-25T12:24:16;3.50;;;1.10;;
313;SDS011;143;51.634;7.112;2023-04-25T12:26:48;4.10;;;1.00;;
313;SDS011;143;51.634;7.112;2023-04-25T12:29:18;2.70;;;1.00;;
313;SDS011;143;51.634;7.112;2023-04-25T12:31:45;7.77;;;1.87;;
313;SDS011;143;51.634;7.112;2023-04-25T12:34:11;4.93;;;1.43;;
313;SDS011;143;51.634;7.112;2023-04-25T12:36:37;3.50;;;1.57;;
313;SDS011;143;51.634;7.112;2023-04-25T12:39:03;3.43;;;0.90;;
313;SDS011;143;51.634;7.112;2023-04-25T12:41:30;7.10;;;1.57;;
313;SDS011;143;51.634;7.112;2023-04-25T12:43:56;7.20;;;1.57;;
313;SDS011;143;51.634;7.112;2023-04-25T12:46:21;3.83;;;1.10;;
313;SDS011;143;51.634;7.112;2023-04-25T12:48:50;3.30;;;1.10;;
313;SDS011;143;51.634;7.112;2023-04-25T12:51:16;4.13;;;1.40;;
313;SDS011;143;51.634;7.112;2023-04-25T12:53:41;5.57;;;1.40;;
313;SDS011;143;51.634;7.112;2023-04-25T12:56:07;6.20;;;1.40;;
313;SDS011;143;51.634;7.112;2023-04-25T12:58:33;3.30;;;1.47;;
313;SDS011;143;51.634;7.112;2023-04-25T13:00:59;8.20;;;1.70;;
313;SDS011;143;51.634;7.112;2023-04-25T13:03:25;3.10;;;1.10;;
313;SDS011;143;51.634;7.112;2023-04-25T13:05:51;2.87;;;0.90;;
313;SDS011;143;51.634;7.112;2023-04-25T13:08:20;6.10;;;1.17;;
313;SDS011;143;51.634;7.112;2023-04-25T13:10:47;6.77;;;1.53;;
313;SDS011;143;51.634;7.112;2023-04-25T13:13:13;10.40;;;1.53;;
313;SDS011;143;51.634;7.112;2023-04-25T13:15:38;3.83;;;1.20;;
313;SDS011;143;51.634;7.112;2023-04-25T13:18:04;9.87;;;2.90;;
313;SDS011;143;51.634;7.112;2023-04-25T13:20:33;5.00;;;1.40;;
313;SDS011;143;51.634;7.112;2023-04-25T13:22:59;9.63;;;1.77;;
313;SDS011;143;51.634;7.112;2023-04-25T13:25:24;5.93;;;1.60;;
313;SDS011;143;51.634;7.112;2023-04-25T13:27:50;5.70;;;1.60;;
313;SDS011;143;51.634;7.112;2023-04-25T13:30:16;9.40;;;2.00;;
313;SDS011;143;51.634;7.112;2023-04-25T13:32:42;2.13;;;1.10;;
313;SDS011;143;51.634;7.112;2023-04-25T13:35:09;7.30;;;1.30;;
313;SDS011;143;51.634;7.112;2023-04-25T13:37:37;5.10;;;1.50;;
313;SDS011;143;51.634;7.112;2023-04-25T13:40:04;7.47;;;1.83;;
313;SDS011;143;51.634;7.112;2023-04-25T13:42:33;4.10;;;1.40;;
313;SDS011;143;51.634;7.112;2023-04-25T13:45:00;4.80;;;1.53;;
313;SDS011;143;51.634;7.112;2023-04-25T13:47:26;9.30;;;1.33;;
313;SDS011;143;51.634;7.112;2023-04-25T13:49:52;3.33;;;1.57;;
313;SDS011;143;51.634;7.112;2023-04-25T13:52:18;3.73;;;1.70;;
313;SDS011;143;51.634;7.112;2023-04-25T13:54:44;3.60;;;1.13;;
313;SDS011;143;51.634;7.112;2023-04-25T13:57:10;7.43;;;1.30;;
313;SDS011;143;51.634;7.112;2023-04-25T13:59:36;4.03;;;1.20;;
313;SDS011;143;51.634;7.112;2023-04-25T14:02:02;1.97;;;0.80;;
313;SDS011;143;51.634;7.112;2023-04-25T14:04:28;4.77;;;1.00;;
313;SDS011;143;51.634;7.112;2023-04-25T14:06:54;3.53;;;1.00;;
313;SDS011;143;51.634;7.112;2023-04-25T14:09:20;2.07;;;1.00;;
313;SDS011;143;51.634;7.112;2023-04-25T14:11:50;3.80;;;1.00;;
313;SDS011;143;51.634;7.112;2023-04-25T14:14:17;2.03;;;0.90;;
313;SDS011;143;51.634;7.112;2023-04-25T14:16:43;3.13;;;1.00;;
313;SDS011;143;51.634;7.112;2023-04-25T14:19:09;3.37;;;0.97;;
313;SDS011;143;51.634;7.112;2023-04-25T14:21:35;4.13;;;1.30;;
313;SDS011;143;51.634;7.112;2023-04-25T14:24:00;3.63;;;1.03;;
313;SDS011;143;51.634;7.112;2023-04-25T14:26:26;6.63;;;1.10;;
313;SDS011;143;51.634;7.112;2023-04-25T14:28:52;4.57;;;1.20;;
313;SDS011;143;51.634;7.112;2023-04-25T14:31:18;3.00;;;1.00;;
313;SDS011;143;51.634;7.112;2023-04-25T14:33:43;7.00;;;1.40;;
313;SDS011;143;51.634;7.112;2023-04-25T14:36:10;4.60;;;1.70;;
313;SDS011;143;51.634;7.112;2023-04-25T14:38:36;8.57;;;1.37;;
313;SDS011;143;51.634;7.112;2023-04-25T14:41:02;4.40;;;1.33;;
313;SDS011;143;51.634;7.112;2023-04-25T14:43:28;4.17;;;1.40;;
313;SDS011;143;51.634;7.112;2023-04-25T14:45:53;4.83;;;1.60;;
313;SDS011;143;51.634;7.112;2023-04-25T14:48:19;6.07;;;1.20;;
313;SDS011;143;51.634;7.112;2023-04-25T14:50:45;1.73;;;1.23;;
313;SDS011;143;51.634;7.112;2023-04-25T14:53:11;8.73;;;1.43;;
313;SDS011;143;51.634;7.112;2023-04-25T14:55:37;4.43;;;1.40;;
313;SDS011;143;51.634;7.112;2023-04-25T14:58:03;4.03;;;1.37;;
313;SDS011;143;51.634;7.112;2023-04-25T15:00:29;3.87;;;1.63;;
313;SDS011;143;51.634;7.112;2023-04-25T15:02:56;4.10;;;1.53;;
313;SDS011;143;51.634;7.112;2023-04-25T15:05:23;4.10;;;1.50;;
313;SDS011;143;51.634;7.112;2023-04-25T15:07:48;4.50;;;1.67;;
313;SDS011;143;51.634;7.112;2023-04-25T15:10:14;4.63;;;1.40;;
313;SDS011;143;51.634;7.112;2023-04-25T15:12:44;3.10;;;1.50;;
313;SDS011;143;51.634;7.112;2023-04-25T15:15:11;4.90;;;1.20;;
313;SDS011;143;51.634;7.112;2023-04-25T15:17:40;2.13;;;1.00;;
313;SDS011;143;51.634;7.112;2023-04-25T15:20:07;2.93;;;1.40;;
313;SDS011;143;51.634;7.112;2023-04-25T15:22:41;5.97;;;1.70;;
313;SDS011;143;51.634;7.112;2023-04-25T15:25:09;5.00;;;1.73;;
313;SDS011;143;51.634;7.112;2023-04-25T15:27:38;2.67;;;1.27;;
313;SDS011;143;51.634;7.112;2023-04-25T15:30:09;3.90;;;1.27;;
313;SDS011;143;51.634;7.112;2023-04-25T15:32:40;3.37;;;1.73;;
313;SDS011;143;51.634;7.112;2023-04-25T15:35:10;5.73;;;1.67;;
313;SDS011;143;51.634;7.112;2023-04-25T15:37:36;2.27;;;1.03;;
313;SDS011;143;51.634;7.112;2023-04-25T15:42:33;2.33;;;1.27;;
313;SDS011;143;51.634;7.112;2023-04-25T15:45:07;2.93;;;1.30;;
313;SDS011;143;51.634;7.112;2023-04-25T15:47:34;2.20;;;1.50;;